Eldred, Pennsylvania
Current Conditions -  °F | °C
As of 5:53 PM on Wednesday 22 Oct 2014 (Local Time) from KBFD Reporting Station
Haze Haze  
Wind Chill: 34°   Ceiling: 400
Heat Index: 41°   Visibility: 6mi
Dew Point: 39°   Wind: 12mph
Humidity: 93%   Direction: 350°N
Pressure: 30.14"   Gusts: 18mph
Location:  41.96°N, 78.39°W
Report Text: KBFD 222153Z AUTO 35010G16KT 6SM BR OVC004 05/04 A3014 RMK AO2 SLP216 T00500039
Loading
Personal Weather Stations






























Interactive Weather Map
Tropical Storm Tracking
New forecast layout! Learn more

10-Day Weather Forecast

Advertisements
Track Severe Weather on mobile